createdAt,value
2018-12-02T00:00:35.491Z,2.10
2018-12-02T00:03:05.487Z,2.00
2018-12-02T00:05:33.937Z,2.40
2018-12-02T00:08:02.406Z,2.33
2018-12-02T00:10:30.898Z,2.43
2018-12-02T00:12:59.369Z,2.50
2018-12-02T00:15:29.537Z,2.43
2018-12-02T00:18:00.080Z,2.40
2018-12-02T00:20:28.753Z,2.03
2018-12-02T00:22:57.265Z,2.30
2018-12-02T00:25:25.726Z,2.23
2018-12-02T00:27:56.759Z,2.57
2018-12-02T00:30:28.205Z,2.33
2018-12-02T00:32:56.770Z,2.40
2018-12-02T00:35:27.068Z,2.30
2018-12-02T00:37:57.686Z,2.20
2018-12-02T00:40:26.232Z,2.63
2018-12-02T00:42:57.677Z,2.00
2018-12-02T00:45:35.756Z,2.80
2018-12-02T00:48:08.468Z,2.50
2018-12-02T00:50:37.128Z,2.27
2018-12-02T00:53:06.939Z,2.40
2018-12-02T00:55:37.923Z,2.23
2018-12-02T00:58:06.397Z,2.60
2018-12-02T01:00:35.005Z,2.10
2018-12-02T01:03:03.715Z,2.40
2018-12-02T01:05:32.250Z,1.63
2018-12-02T01:08:00.766Z,2.10
2018-12-02T01:10:29.326Z,2.00
2018-12-02T01:12:58.613Z,2.03
2018-12-02T01:15:30.172Z,1.90
2018-12-02T01:17:58.776Z,1.97
2018-12-02T01:20:27.308Z,2.10
2018-12-02T01:22:55.850Z,2.33
2018-12-02T01:25:24.398Z,1.90
2018-12-02T01:27:52.924Z,2.03
2018-12-02T01:30:23.568Z,2.40
2018-12-02T01:32:54.504Z,2.30
2018-12-02T01:35:23.178Z,2.57
2018-12-02T01:37:51.903Z,2.03
2018-12-02T01:40:22.256Z,2.73
2018-12-02T01:42:52.588Z,2.73
2018-12-02T01:45:24.018Z,2.93
2018-12-02T01:47:53.236Z,2.80
2018-12-02T01:50:24.674Z,2.20
2018-12-02T01:52:56.118Z,2.70
2018-12-02T01:55:24.651Z,2.80
2018-12-02T01:57:53.183Z,2.37
2018-12-02T02:00:24.597Z,2.43
2018-12-02T02:02:53.645Z,2.50
2018-12-02T02:05:22.982Z,2.67
2018-12-02T02:07:52.622Z,2.70
2018-12-02T02:10:24.880Z,2.40
2018-12-02T02:12:53.355Z,2.90
2018-12-02T02:15:21.977Z,2.60
2018-12-02T02:17:51.071Z,2.80
2018-12-02T02:20:21.884Z,2.70
2018-12-02T02:22:50.419Z,2.30
2018-12-02T02:25:19.800Z,2.60
2018-12-02T02:27:50.849Z,2.37
2018-12-02T02:30:20.607Z,3.03
2018-12-02T02:32:49.171Z,3.30
2018-12-02T02:35:19.002Z,2.70
2018-12-02T02:37:47.700Z,3.20
2018-12-02T02:40:17.398Z,3.00
2018-12-02T02:42:45.942Z,2.80
2018-12-02T02:45:14.991Z,2.83
2018-12-02T02:47:43.565Z,3.10
2018-12-02T02:50:16.954Z,2.87
2018-12-02T02:52:46.575Z,3.30
2018-12-02T02:55:15.079Z,3.63
2018-12-02T02:57:43.611Z,3.07
2018-12-02T03:00:15.465Z,3.63
2018-12-02T03:02:44.063Z,2.97
2018-12-02T03:05:13.457Z,3.20
2018-12-02T03:07:41.959Z,2.67
2018-12-02T03:10:12.963Z,3.07
2018-12-02T03:12:41.545Z,2.73
2018-12-02T03:15:12.159Z,3.40
2018-12-02T03:17:41.601Z,3.20
2018-12-02T03:20:13.615Z,2.97
2018-12-02T03:22:43.209Z,2.50
2018-12-02T03:25:12.875Z,2.50
2018-12-02T03:27:41.355Z,2.90
2018-12-02T03:30:17.897Z,3.00
2018-12-02T03:32:46.805Z,2.80
2018-12-02T03:35:18.562Z,3.00
2018-12-02T03:37:47.375Z,2.90
2018-12-02T03:40:22.039Z,3.23
2018-12-02T03:42:51.386Z,3.30
2018-12-02T03:45:21.251Z,3.10
2018-12-02T03:47:49.786Z,3.23
2018-12-02T03:50:19.594Z,3.10
2018-12-02T03:52:48.639Z,3.10
2018-12-02T03:55:17.453Z,2.67
2018-12-02T03:57:46.427Z,2.70
2018-12-02T04:00:31.078Z,2.80
2018-12-02T04:03:00.101Z,3.03
2018-12-02T04:05:28.679Z,3.03
2018-12-02T04:07:57.179Z,3.13
2018-12-02T04:10:25.703Z,3.33
2018-12-02T04:12:54.201Z,3.17
2018-12-02T04:15:23.617Z,3.40
2018-12-02T04:17:52.148Z,3.40
2018-12-02T04:20:21.118Z,3.33
2018-12-02T04:22:50.525Z,3.13
2018-12-02T04:25:22.169Z,3.00
2018-12-02T04:27:50.683Z,3.10
2018-12-02T04:30:20.064Z,2.97
2018-12-02T04:32:49.504Z,3.17
2018-12-02T04:35:19.141Z,3.80
2018-12-02T04:37:47.711Z,3.10
2018-12-02T04:40:16.255Z,3.50
2018-12-02T04:42:44.811Z,3.07
2018-12-02T04:45:14.450Z,3.37
2018-12-02T04:47:43.014Z,3.73
2018-12-02T04:50:13.689Z,3.33
2018-12-02T04:52:42.184Z,3.80
2018-12-02T04:55:11.047Z,3.67
2018-12-02T04:57:39.648Z,3.93
2018-12-02T05:00:11.726Z,3.60
2018-12-02T05:02:40.309Z,3.33
2018-12-02T05:05:10.160Z,3.70
2018-12-02T05:07:39.209Z,3.40
2018-12-02T05:10:12.063Z,3.70
2018-12-02T05:12:40.918Z,4.00
2018-12-02T05:15:11.427Z,3.50
2018-12-02T05:17:39.976Z,3.57
2018-12-02T05:20:15.650Z,3.87
2018-12-02T05:22:44.195Z,3.80
2018-12-02T05:25:17.611Z,3.70
2018-12-02T05:27:43.089Z,3.83
2018-12-02T05:30:13.651Z,3.83
2018-12-02T05:32:42.242Z,3.97
2018-12-02T05:35:11.735Z,3.50
2018-12-02T05:37:40.310Z,3.87
2018-12-02T05:40:12.412Z,3.90
2018-12-02T05:42:40.927Z,3.17
2018-12-02T05:45:13.252Z,3.80
2018-12-02T05:47:41.824Z,3.90
2018-12-02T05:50:19.248Z,3.90
2018-12-02T05:52:50.969Z,3.50
2018-12-02T05:55:24.809Z,3.57
2018-12-02T05:57:53.301Z,3.40
2018-12-02T06:00:22.475Z,3.50
2018-12-02T06:02:50.971Z,3.30
2018-12-02T06:05:19.476Z,2.87
2018-12-02T06:07:48.095Z,3.23
2018-12-02T06:10:17.558Z,3.37
2018-12-02T06:12:46.056Z,2.90
2018-12-02T06:15:17.446Z,2.73
2018-12-02T06:17:45.950Z,2.90
2018-12-02T06:20:17.499Z,2.40
2018-12-02T06:22:46.767Z,2.30
2018-12-02T06:25:15.247Z,2.77
2018-12-02T06:27:43.903Z,2.10
2018-12-02T06:30:24.242Z,2.27
2018-12-02T06:32:57.170Z,1.93
2018-12-02T06:35:25.645Z,2.20
2018-12-02T06:37:55.190Z,2.20
2018-12-02T06:40:27.301Z,2.03
2018-12-02T06:42:55.803Z,2.10
2018-12-02T06:45:24.287Z,1.83
2018-12-02T06:47:52.777Z,2.47
2018-12-02T06:50:22.300Z,2.00
2018-12-02T06:52:51.178Z,1.80
2018-12-02T06:55:31.098Z,2.07
2018-12-02T06:58:11.858Z,2.10
2018-12-02T07:02:52.321Z,2.20
2018-12-02T07:05:24.247Z,2.00
2018-12-02T07:07:52.863Z,2.57
2018-12-02T07:10:21.430Z,2.80
2018-12-02T07:12:49.964Z,2.90
2018-12-02T07:15:18.454Z,3.10
2018-12-02T07:17:49.944Z,3.30
2018-12-02T07:20:21.540Z,3.37
2018-12-02T07:22:51.032Z,3.57
2018-12-02T07:25:23.794Z,3.77
2018-12-02T07:27:53.080Z,3.47
2018-12-02T07:30:24.994Z,3.57
2018-12-02T07:32:50.091Z,3.43
2018-12-02T07:35:18.606Z,3.83
2018-12-02T07:37:50.334Z,3.87
2018-12-02T07:40:26.461Z,3.37
2018-12-02T07:42:54.947Z,4.30
2018-12-02T07:45:23.506Z,4.40
2018-12-02T07:47:51.993Z,3.60
2018-12-02T07:50:20.510Z,3.83
2018-12-02T07:52:48.995Z,3.97
2018-12-02T07:55:18.567Z,4.10
2018-12-02T07:57:48.457Z,3.70
2018-12-02T08:00:18.048Z,4.60
2018-12-02T08:02:46.547Z,3.87
2018-12-02T08:05:16.142Z,4.53
2018-12-02T08:07:45.857Z,4.77
2018-12-02T08:10:15.647Z,4.97
2018-12-02T08:12:44.139Z,5.03
2018-12-02T08:15:19.915Z,5.13
2018-12-02T08:17:48.446Z,5.27
2018-12-02T08:20:17.717Z,5.73
2018-12-02T08:22:51.328Z,5.83
2018-12-02T08:25:17.153Z,5.60
2018-12-02T08:27:45.730Z,6.27
2018-12-02T08:30:18.469Z,6.43
2018-12-02T08:32:46.987Z,6.33
2018-12-02T08:35:16.571Z,6.10
2018-12-02T08:37:46.589Z,6.10
2018-12-02T08:40:15.103Z,7.00
2018-12-02T08:42:43.639Z,6.83
2018-12-02T08:45:15.835Z,7.23
2018-12-02T08:47:44.914Z,7.50
2018-12-02T08:50:16.327Z,6.50
2018-12-02T08:52:45.406Z,7.77
2018-12-02T08:55:15.405Z,9.10
2018-12-02T08:57:44.027Z,10.97
2018-12-02T09:00:17.768Z,10.13
2018-12-02T09:02:52.732Z,11.40
2018-12-02T09:05:21.222Z,13.30
2018-12-02T09:07:49.753Z,12.13
2018-12-02T09:10:22.557Z,12.07
2018-12-02T09:12:53.565Z,13.33
2018-12-02T09:15:22.406Z,10.83
2018-12-02T09:17:50.966Z,12.40
2018-12-02T09:20:28.865Z,14.13
2018-12-02T09:22:57.399Z,15.00
2018-12-02T09:25:26.010Z,15.33
2018-12-02T09:27:55.310Z,16.03
2018-12-02T09:30:25.248Z,15.47
2018-12-02T09:32:54.762Z,16.03
2018-12-02T09:35:23.294Z,16.43
2018-12-02T09:37:51.858Z,15.37
2018-12-02T09:40:20.400Z,15.83
2018-12-02T09:42:50.159Z,15.67
2018-12-02T09:45:22.633Z,15.07
2018-12-02T09:47:51.204Z,15.70
2018-12-02T09:50:19.812Z,14.83
2018-12-02T09:52:48.450Z,16.17
2018-12-02T09:55:22.118Z,15.40
2018-12-02T09:57:51.213Z,15.30
2018-12-02T10:00:20.713Z,16.60
2018-12-02T10:02:49.269Z,15.70
2018-12-02T10:05:17.904Z,14.93
2018-12-02T10:07:46.571Z,15.07
2018-12-02T10:10:22.140Z,14.73
2018-12-02T10:12:46.409Z,14.50
2018-12-02T10:15:16.113Z,13.47
2018-12-02T10:17:44.715Z,14.70
2018-12-02T10:20:14.565Z,13.40
2018-12-02T10:22:43.541Z,13.50
2018-12-02T10:25:13.298Z,13.70
2018-12-02T10:27:41.752Z,13.67
2018-12-02T10:30:15.698Z,13.73
2018-12-02T10:32:44.305Z,14.03
2018-12-02T10:35:12.838Z,13.67
2018-12-02T10:37:41.426Z,12.67
2018-12-02T10:40:14.090Z,13.17
2018-12-02T10:42:42.752Z,12.87
2018-12-02T10:45:12.675Z,13.77
2018-12-02T10:47:41.494Z,11.70
2018-12-02T10:50:26.587Z,11.67
2018-12-02T10:52:56.776Z,10.87
2018-12-02T10:55:28.110Z,7.77
2018-12-02T10:57:56.663Z,8.30
2018-12-02T11:00:30.628Z,7.77
2018-12-02T11:02:59.170Z,6.93
2018-12-02T11:05:27.726Z,6.87
2018-12-02T11:07:56.248Z,6.17
2018-12-02T11:10:24.811Z,5.50
2018-12-02T11:12:53.351Z,5.13
2018-12-02T11:15:22.003Z,5.20
2018-12-02T11:17:50.540Z,5.10
2018-12-02T11:20:19.133Z,5.10
2018-12-02T11:22:48.007Z,4.43
2018-12-02T11:25:16.890Z,4.13
2018-12-02T11:27:45.698Z,3.27
2018-12-02T11:30:16.082Z,3.37
2018-12-02T11:32:45.660Z,3.17
2018-12-02T11:35:17.135Z,4.40
2018-12-02T11:37:46.046Z,3.63
2018-12-02T11:40:19.892Z,3.00
2018-12-02T11:42:49.238Z,3.00
2018-12-02T11:45:18.103Z,3.13
2018-12-02T11:47:48.927Z,3.23
2018-12-02T11:50:19.308Z,3.40
2018-12-02T11:52:47.888Z,3.93
2018-12-02T11:55:18.036Z,4.27
2018-12-02T11:57:46.814Z,3.77
2018-12-02T12:00:16.909Z,4.30
2018-12-02T12:02:45.459Z,4.03
2018-12-02T12:05:14.022Z,4.33
2018-12-02T12:07:43.435Z,3.90
2018-12-02T12:10:14.883Z,4.77
2018-12-02T12:12:43.531Z,4.73
2018-12-02T12:15:14.421Z,5.47
2018-12-02T12:17:43.005Z,4.63
2018-12-02T12:20:27.500Z,5.23
2018-12-02T12:22:56.321Z,4.17
2018-12-02T12:25:24.957Z,4.30
2018-12-02T12:27:54.656Z,4.60
2018-12-02T12:30:25.052Z,4.63
2018-12-02T12:32:54.873Z,4.87
2018-12-02T12:35:24.046Z,4.37
2018-12-02T12:37:52.517Z,4.03
2018-12-02T12:40:23.730Z,4.50
2018-12-02T12:42:55.979Z,4.47
2018-12-02T12:45:24.480Z,3.97
2018-12-02T12:47:52.938Z,5.60
2018-12-02T12:50:21.462Z,3.60
2018-12-02T12:52:50.056Z,4.70
2018-12-02T12:55:18.574Z,4.47
2018-12-02T12:57:47.119Z,4.60
2018-12-02T13:00:20.388Z,4.93
2018-12-02T13:02:48.931Z,4.27
2018-12-02T13:05:27.671Z,4.70
2018-12-02T13:07:56.251Z,3.77
2018-12-02T13:10:24.720Z,4.00
2018-12-02T13:12:54.190Z,3.97
2018-12-02T13:15:23.387Z,3.57
2018-12-02T13:18:00.520Z,3.90
2018-12-02T13:20:33.660Z,4.20
2018-12-02T13:23:02.193Z,4.13
2018-12-02T13:25:30.780Z,4.20
2018-12-02T13:27:59.276Z,3.27
2018-12-02T13:30:27.783Z,3.50
2018-12-02T13:32:56.330Z,3.47
2018-12-02T13:35:25.155Z,3.20
2018-12-02T13:37:53.705Z,2.67
2018-12-02T13:40:22.941Z,2.90
2018-12-02T13:42:55.014Z,3.50
2018-12-02T13:45:26.124Z,3.80
2018-12-02T13:47:54.636Z,3.93
2018-12-02T13:50:23.237Z,4.00
2018-12-02T13:52:53.090Z,5.13
2018-12-02T13:55:22.964Z,5.50
2018-12-02T13:57:51.617Z,5.57
2018-12-02T14:00:21.471Z,5.67
2018-12-02T14:02:51.617Z,6.00
2018-12-02T14:05:20.180Z,6.33
2018-12-02T14:07:48.718Z,6.83
2018-12-02T14:10:17.247Z,7.80
2018-12-02T14:12:54.577Z,6.70
2018-12-02T14:17:40.064Z,8.00
2018-12-02T14:20:08.785Z,7.50
2018-12-02T14:22:37.368Z,7.03
2018-12-02T14:25:10.173Z,7.03
2018-12-02T14:27:39.031Z,8.23
2018-12-02T14:30:11.652Z,6.83
2018-12-02T14:32:40.179Z,7.80
2018-12-02T14:35:09.119Z,8.70
2018-12-02T14:37:37.694Z,7.70
2018-12-02T14:40:14.818Z,8.20
2018-12-02T14:42:45.168Z,8.13
2018-12-02T14:45:17.502Z,9.00
2018-12-02T14:47:46.052Z,8.10
2018-12-02T14:50:16.595Z,8.23
2018-12-02T14:52:47.343Z,8.20
2018-12-02T14:55:20.882Z,6.50
2018-12-02T14:57:49.432Z,5.87
2018-12-02T15:00:18.519Z,7.13
2018-12-02T15:02:47.076Z,6.53
2018-12-02T15:05:15.638Z,5.33
2018-12-02T15:07:44.686Z,4.80
2018-12-02T15:10:17.129Z,5.30
2018-12-02T15:12:47.857Z,9.10
2018-12-02T15:15:17.446Z,5.00
2018-12-02T15:17:47.364Z,5.60
2018-12-02T15:20:18.253Z,5.50
2018-12-02T15:22:46.820Z,7.07
2018-12-02T15:25:15.456Z,5.83
2018-12-02T15:27:44.840Z,6.30
2018-12-02T15:30:16.338Z,6.53
2018-12-02T15:32:48.066Z,7.57
2018-12-02T15:35:16.559Z,8.07
2018-12-02T15:37:45.128Z,7.93
2018-12-02T15:40:14.746Z,8.43
2018-12-02T15:42:51.201Z,7.80
2018-12-02T15:45:23.755Z,7.50
2018-12-02T15:47:52.244Z,9.37
2018-12-02T15:50:21.927Z,7.43
2018-12-02T15:52:50.559Z,9.23
2018-12-02T15:55:22.344Z,7.83
2018-12-02T15:57:50.897Z,6.97
2018-12-02T16:00:23.187Z,7.57
2018-12-02T16:02:51.759Z,7.80
2018-12-02T16:05:20.339Z,7.63
2018-12-02T16:07:48.847Z,7.87
2018-12-02T16:10:17.464Z,8.27
2018-12-02T16:12:49.470Z,8.63
2018-12-02T16:15:20.202Z,8.90
2018-12-02T16:17:49.731Z,9.70
2018-12-02T16:20:26.336Z,9.57
2018-12-02T16:22:54.891Z,8.80
2018-12-02T16:25:23.371Z,9.30
2018-12-02T16:27:52.134Z,8.47
2018-12-02T16:30:21.116Z,8.97
2018-12-02T16:32:56.998Z,9.70
2018-12-02T16:35:25.698Z,10.63
2018-12-02T16:37:55.048Z,10.07
2018-12-02T16:40:29.218Z,11.83
2018-12-02T16:42:59.323Z,13.90
2018-12-02T16:45:27.817Z,10.87
2018-12-02T16:47:58.362Z,11.53
2018-12-02T16:50:31.041Z,11.03
2018-12-02T16:53:03.963Z,9.33
2018-12-02T16:55:34.268Z,7.67
2018-12-02T16:58:24.250Z,9.17
2018-12-02T17:00:58.355Z,7.80
2018-12-02T17:03:26.842Z,6.30
2018-12-02T17:05:55.289Z,4.90
2018-12-02T17:08:23.836Z,4.50
2018-12-02T17:10:52.295Z,4.07
2018-12-02T17:13:20.779Z,3.77
2018-12-02T17:15:49.270Z,3.57
2018-12-02T17:18:17.859Z,3.60
2018-12-02T17:20:46.388Z,2.97
2018-12-02T17:23:14.875Z,3.47
2018-12-02T17:25:43.370Z,3.20
2018-12-02T17:28:11.941Z,3.80
2018-12-02T17:30:48.999Z,3.13
2018-12-02T17:33:17.521Z,2.70
2018-12-02T17:37:15.254Z,3.20
2018-12-02T17:39:50.007Z,3.10
2018-12-02T17:42:18.520Z,3.07
2018-12-02T17:44:47.009Z,2.83
2018-12-02T17:47:15.542Z,3.17
2018-12-02T17:49:44.119Z,2.80
2018-12-02T17:52:12.724Z,3.30
2018-12-02T17:54:41.225Z,2.83
2018-12-02T17:57:10.746Z,3.27
2018-12-02T17:59:39.297Z,3.40
2018-12-02T18:02:08.303Z,3.17
2018-12-02T18:04:36.848Z,2.50
2018-12-02T18:07:06.185Z,2.50
2018-12-02T18:09:34.714Z,1.70
2018-12-02T18:12:03.259Z,2.20
2018-12-02T18:14:31.779Z,1.30
2018-12-02T18:17:00.350Z,1.90
2018-12-02T18:19:29.546Z,1.90
2018-12-02T18:21:58.076Z,1.60
2018-12-02T18:24:26.544Z,2.00
2018-12-02T18:26:55.006Z,1.37
2018-12-02T18:29:23.472Z,1.73
2018-12-02T18:31:51.943Z,2.13
2018-12-02T18:34:20.434Z,1.27
2018-12-02T18:36:48.987Z,1.97
2018-12-02T18:39:17.494Z,1.30
2018-12-02T18:41:51.456Z,1.30
2018-12-02T18:44:20.875Z,1.57
2018-12-02T18:46:49.482Z,1.53
2018-12-02T18:49:18.042Z,1.70
2018-12-02T18:51:46.569Z,1.50
2018-12-02T18:54:15.106Z,1.67
2018-12-02T18:56:43.851Z,2.00
2018-12-02T18:59:12.369Z,1.90
2018-12-02T19:01:40.906Z,2.37
2018-12-02T19:04:09.344Z,1.43
2018-12-02T19:06:37.870Z,1.80
2018-12-02T19:09:12.442Z,1.70
2018-12-02T19:11:40.941Z,2.30
2018-12-02T19:14:09.524Z,1.83
2018-12-02T19:16:38.054Z,2.37
2018-12-02T19:19:08.936Z,2.90
2018-12-02T19:21:37.479Z,2.70
2018-12-02T19:24:10.975Z,3.70
2018-12-02T19:26:39.804Z,3.93
2018-12-02T19:29:08.412Z,3.87
2018-12-02T19:31:36.965Z,4.37
2018-12-02T19:34:06.102Z,4.10
2018-12-02T19:36:37.326Z,4.77
2018-12-02T19:39:10.508Z,4.80
2018-12-02T19:41:38.993Z,4.83
2018-12-02T19:44:07.605Z,5.53
2018-12-02T19:46:36.401Z,5.33
2018-12-02T19:49:04.969Z,5.40
2018-12-02T19:51:33.478Z,6.73
2018-12-02T19:54:01.968Z,6.90
2018-12-02T19:56:30.471Z,6.70
2018-12-02T19:58:58.958Z,8.23
2018-12-02T20:01:27.472Z,8.27
2018-12-02T20:03:55.964Z,8.30
2018-12-02T20:06:24.538Z,9.10
2018-12-02T20:08:53.202Z,8.77
2018-12-02T20:11:21.799Z,9.77
2018-12-02T20:13:50.941Z,9.23
2018-12-02T20:16:19.537Z,9.33
2018-12-02T20:18:48.328Z,9.43
2018-12-02T20:21:18.144Z,9.00
2018-12-02T20:23:51.979Z,9.80
2018-12-02T20:26:20.539Z,8.57
2018-12-02T20:28:51.418Z,9.77
2018-12-02T20:31:22.922Z,8.80
2018-12-02T20:33:51.460Z,8.60
2018-12-02T20:36:19.944Z,9.70
2018-12-02T20:38:48.426Z,10.17
2018-12-02T20:41:16.962Z,10.03
2018-12-02T20:43:45.610Z,10.07
2018-12-02T20:46:14.186Z,10.50
2018-12-02T20:48:42.727Z,10.63
2018-12-02T20:51:11.227Z,11.03
2018-12-02T20:53:39.767Z,12.67
2018-12-02T20:56:08.378Z,12.67
2018-12-02T20:58:36.886Z,13.13
2018-12-02T21:01:05.563Z,15.33
2018-12-02T21:03:36.984Z,15.17
2018-12-02T21:06:09.082Z,15.03
2018-12-02T21:08:37.559Z,15.37
2018-12-02T21:11:06.181Z,15.97
2018-12-02T21:13:34.687Z,16.13
2018-12-02T21:16:03.193Z,15.90
2018-12-02T21:18:31.727Z,16.87
2018-12-02T21:21:00.210Z,15.00
2018-12-02T21:23:28.700Z,15.27
2018-12-02T21:25:57.230Z,15.00
2018-12-02T21:28:26.361Z,14.60
2018-12-02T21:30:54.832Z,15.30
2018-12-02T21:33:23.347Z,16.43
2018-12-02T21:35:52.225Z,14.10
2018-12-02T21:38:20.723Z,14.50
2018-12-02T21:40:49.276Z,13.40
2018-12-02T21:43:17.778Z,15.17
2018-12-02T21:45:46.347Z,14.50
2018-12-02T21:48:16.697Z,14.47
2018-12-02T21:50:47.240Z,14.73
2018-12-02T21:53:15.705Z,13.63
2018-12-02T21:55:44.216Z,14.63
2018-12-02T21:58:12.749Z,14.40
2018-12-02T22:00:46.482Z,14.70
2018-12-02T22:03:15.108Z,13.87
2018-12-02T22:05:43.694Z,14.17
2018-12-02T22:08:12.220Z,14.10
2018-12-02T22:10:40.845Z,13.97
2018-12-02T22:13:09.823Z,15.23
2018-12-02T22:15:38.574Z,14.00
2018-12-02T22:18:07.213Z,14.73
2018-12-02T22:20:35.723Z,13.77
2018-12-02T22:23:04.277Z,13.93
2018-12-02T22:25:32.770Z,14.47
2018-12-02T22:28:01.272Z,13.77
2018-12-02T22:30:29.816Z,14.73
2018-12-02T22:32:58.328Z,14.97
2018-12-02T22:35:26.822Z,14.77
2018-12-02T22:37:55.338Z,15.70
2018-12-02T22:40:25.044Z,15.13
2018-12-02T22:42:54.697Z,16.57
2018-12-02T22:45:27.428Z,15.67
2018-12-02T22:47:55.958Z,16.57
2018-12-02T22:50:27.366Z,16.93
2018-12-02T22:52:58.106Z,16.77
2018-12-02T22:55:26.628Z,17.43
2018-12-02T22:57:55.194Z,17.43
2018-12-02T23:00:30.092Z,18.13
2018-12-02T23:03:04.189Z,18.90
2018-12-02T23:05:32.825Z,17.73
2018-12-02T23:08:01.652Z,18.30
2018-12-02T23:10:30.250Z,17.20
2018-12-02T23:19:45.443Z,17.37
2018-12-02T23:22:13.966Z,18.00
2018-12-02T23:24:42.499Z,20.60
2018-12-02T23:27:10.971Z,20.80
2018-12-02T23:29:39.488Z,20.93
2018-12-02T23:32:07.976Z,20.77
2018-12-02T23:34:36.516Z,19.37
2018-12-02T23:37:05.144Z,21.40
2018-12-02T23:39:33.655Z,19.83
2018-12-02T23:42:02.140Z,14.87
2018-12-02T23:44:30.660Z,13.67
2018-12-02T23:46:59.242Z,13.53
2018-12-02T23:49:27.826Z,11.93
2018-12-02T23:51:56.299Z,11.10
2018-12-02T23:54:24.783Z,8.07
2018-12-02T23:56:53.394Z,8.43
2018-12-02T23:59:21.904Z,7.57
